createdAt,value
2019-01-20T00:01:31.872Z,18.57
2019-01-20T00:04:01.046Z,18.60
2019-01-20T00:06:30.163Z,18.62
2019-01-20T00:08:59.256Z,17.77
2019-01-20T00:11:28.464Z,16.65
2019-01-20T00:13:57.568Z,18.35
2019-01-20T00:16:26.748Z,16.93
2019-01-20T00:18:55.894Z,17.67
2019-01-20T00:21:25.073Z,16.82
2019-01-20T00:23:54.202Z,18.00
2019-01-20T00:26:23.337Z,17.77
2019-01-20T00:28:52.481Z,16.00
2019-01-20T00:31:21.579Z,16.32
2019-01-20T00:33:50.770Z,15.13
2019-01-20T00:36:19.890Z,16.85
2019-01-20T00:38:49.057Z,16.48
2019-01-20T00:41:24.028Z,16.70
2019-01-20T00:43:49.117Z,18.10
2019-01-20T00:46:18.324Z,16.20
2019-01-20T00:48:47.480Z,17.62
2019-01-20T00:51:16.915Z,16.93
2019-01-20T00:53:46.028Z,16.23
2019-01-20T00:56:15.128Z,14.53
2019-01-20T00:58:44.243Z,15.83
2019-01-20T01:01:13.565Z,16.07
2019-01-20T01:03:42.914Z,15.18
2019-01-20T01:06:12.086Z,16.15
2019-01-20T01:08:41.303Z,15.40
2019-01-20T01:11:10.434Z,16.67
2019-01-20T01:13:39.590Z,16.90
2019-01-20T01:16:08.704Z,16.95
2019-01-20T01:18:37.835Z,17.42
2019-01-20T01:21:07.018Z,16.50
2019-01-20T01:23:36.149Z,15.45
2019-01-20T01:26:05.307Z,15.83
2019-01-20T01:28:34.497Z,15.53
2019-01-20T01:31:03.731Z,17.30
2019-01-20T01:33:32.845Z,16.12
2019-01-20T01:36:02.003Z,16.73
2019-01-20T01:38:31.104Z,16.95
2019-01-20T01:41:00.338Z,16.15
2019-01-20T01:43:29.479Z,16.12
2019-01-20T01:45:58.645Z,17.00
2019-01-20T01:48:27.759Z,15.55
2019-01-20T01:50:56.933Z,16.60
2019-01-20T01:53:26.031Z,17.90
2019-01-20T01:55:55.234Z,17.25
2019-01-20T01:58:24.395Z,17.55
2019-01-20T02:00:53.649Z,15.65
2019-01-20T02:03:22.740Z,17.45
2019-01-20T02:05:51.867Z,17.85
2019-01-20T02:08:21.117Z,19.27
2019-01-20T02:10:50.296Z,17.25
2019-01-20T02:13:19.489Z,17.77
2019-01-20T02:15:48.681Z,18.67
2019-01-20T02:18:17.824Z,18.55
2019-01-20T02:20:47.012Z,17.30
2019-01-20T02:23:16.157Z,18.15
2019-01-20T02:25:45.336Z,17.80
2019-01-20T02:28:14.453Z,16.75
2019-01-20T02:30:43.569Z,17.37
2019-01-20T02:33:12.677Z,18.37
2019-01-20T02:35:41.954Z,19.62
2019-01-20T02:38:11.189Z,17.82
2019-01-20T02:40:40.356Z,18.10
2019-01-20T02:43:09.521Z,18.37
2019-01-20T02:45:38.683Z,17.70
2019-01-20T02:48:07.787Z,17.15
2019-01-20T02:50:37.220Z,19.85
2019-01-20T02:53:06.392Z,17.82
2019-01-20T02:55:35.558Z,17.32
2019-01-20T02:58:04.818Z,17.70
2019-01-20T03:00:34.124Z,18.40
2019-01-20T03:03:03.318Z,17.27
2019-01-20T03:05:32.408Z,18.77
2019-01-20T03:08:01.493Z,19.07
2019-01-20T03:10:30.668Z,17.55
2019-01-20T03:12:59.767Z,18.15
2019-01-20T03:15:29.363Z,18.48
2019-01-20T03:17:58.536Z,18.42
2019-01-20T03:20:27.750Z,17.80
2019-01-20T03:22:56.964Z,19.35
2019-01-20T03:25:26.161Z,19.67
2019-01-20T03:27:55.331Z,17.80
2019-01-20T03:30:24.672Z,18.23
2019-01-20T03:32:53.868Z,17.70
2019-01-20T03:35:25.128Z,18.65
2019-01-20T03:37:54.360Z,17.17
2019-01-20T03:40:23.610Z,17.45
2019-01-20T03:42:52.840Z,19.80
2019-01-20T03:45:22.079Z,17.67
2019-01-20T03:47:51.233Z,18.25
2019-01-20T03:50:20.418Z,18.50
2019-01-20T03:52:49.743Z,17.98
2019-01-20T03:55:19.119Z,17.95
2019-01-20T03:57:48.363Z,17.73
2019-01-20T04:00:22.274Z,18.12
2019-01-20T04:02:59.715Z,16.57
2019-01-20T04:05:28.916Z,18.87
2019-01-20T04:07:58.064Z,18.23
2019-01-20T04:10:27.332Z,17.07
2019-01-20T04:12:57.612Z,19.10
2019-01-20T04:15:26.724Z,17.90
2019-01-20T04:17:55.897Z,16.90
2019-01-20T04:20:25.072Z,18.30
2019-01-20T04:22:54.150Z,19.10
2019-01-20T04:25:23.344Z,18.57
2019-01-20T04:27:52.440Z,18.37
2019-01-20T04:30:21.695Z,17.50
2019-01-20T04:32:50.808Z,19.90
2019-01-20T04:35:19.989Z,18.20
2019-01-20T04:37:49.072Z,17.67
2019-01-20T04:40:20.228Z,17.42
2019-01-20T04:42:49.349Z,19.10
2019-01-20T04:45:18.587Z,18.00
2019-01-20T04:47:47.826Z,20.02
2019-01-20T04:50:19.203Z,18.77
2019-01-20T04:52:48.351Z,18.30
2019-01-20T04:55:17.703Z,17.60
2019-01-20T04:57:49.923Z,19.45
2019-01-20T05:00:20.802Z,17.67
2019-01-20T05:02:49.952Z,19.15
2019-01-20T05:05:19.536Z,17.60
2019-01-20T05:07:48.687Z,17.23
2019-01-20T05:10:17.992Z,17.90
2019-01-20T05:12:47.167Z,18.62
2019-01-20T05:15:18.206Z,19.20
2019-01-20T05:17:47.525Z,18.00
2019-01-20T05:20:17.796Z,19.30
2019-01-20T05:22:47.036Z,19.52
2019-01-20T05:25:16.782Z,18.42
2019-01-20T05:27:46.953Z,19.00
2019-01-20T05:30:18.546Z,21.40
2019-01-20T05:32:47.732Z,20.25
2019-01-20T05:35:16.929Z,20.02
2019-01-20T05:37:46.093Z,20.10
2019-01-20T05:40:17.428Z,19.62
2019-01-20T05:42:46.985Z,20.02
2019-01-20T05:45:18.257Z,18.50
2019-01-20T05:47:47.420Z,19.23
2019-01-20T05:50:16.768Z,18.92
2019-01-20T05:52:45.945Z,17.87
2019-01-20T05:55:15.248Z,19.15
2019-01-20T05:57:44.580Z,18.90
2019-01-20T06:00:19.529Z,17.25
2019-01-20T06:02:48.771Z,18.70
2019-01-20T06:05:17.873Z,20.40
2019-01-20T06:07:47.003Z,18.95
2019-01-20T06:10:16.226Z,18.75
2019-01-20T06:12:45.444Z,18.35
2019-01-20T06:15:16.455Z,18.73
2019-01-20T06:17:45.701Z,19.40
2019-01-20T06:20:15.314Z,18.20
2019-01-20T06:22:44.497Z,19.05
2019-01-20T06:25:13.852Z,19.50
2019-01-20T06:27:43.318Z,22.35
2019-01-20T06:30:19.243Z,21.35
2019-01-20T06:32:48.336Z,19.85
2019-01-20T06:35:17.508Z,18.67
2019-01-20T06:37:46.697Z,19.35
2019-01-20T06:40:16.107Z,19.48
2019-01-20T06:42:45.335Z,20.08
2019-01-20T06:45:14.679Z,20.80
2019-01-20T06:47:43.843Z,18.65
2019-01-20T06:50:13.812Z,19.17
2019-01-20T06:52:42.993Z,20.30
2019-01-20T06:55:12.924Z,20.55
2019-01-20T06:57:42.244Z,21.50
2019-01-20T07:00:14.671Z,18.50
2019-01-20T07:02:43.843Z,19.55
2019-01-20T07:05:13.211Z,19.67
2019-01-20T07:07:42.452Z,19.57
2019-01-20T07:10:12.469Z,17.17
2019-01-20T07:12:41.556Z,19.12
2019-01-20T07:15:16.106Z,18.42
2019-01-20T07:17:45.284Z,19.42
2019-01-20T07:20:14.678Z,18.55
2019-01-20T07:22:43.860Z,17.37
2019-01-20T07:25:13.279Z,18.62
2019-01-20T07:27:42.476Z,20.35
2019-01-20T07:30:17.098Z,19.15
2019-01-20T07:32:46.450Z,20.05
2019-01-20T07:36:33.871Z,18.90
2019-01-20T07:39:09.860Z,20.20
2019-01-20T07:42:52.150Z,18.30
2019-01-20T07:45:55.899Z,20.17
2019-01-20T07:48:43.123Z,16.77
2019-01-20T07:51:13.373Z,19.85
2019-01-20T07:53:42.489Z,20.43
2019-01-20T07:56:12.689Z,18.00
2019-01-20T07:58:41.883Z,17.87
2019-01-20T08:01:11.372Z,20.27
2019-01-20T08:03:40.574Z,20.80
2019-01-20T08:06:09.748Z,19.07
2019-01-20T08:08:41.641Z,18.42
2019-01-20T08:11:10.854Z,17.80
2019-01-20T08:13:39.992Z,18.32
2019-01-20T08:16:09.227Z,18.45
2019-01-20T08:18:38.499Z,20.12
2019-01-20T08:21:07.803Z,18.90
2019-01-20T08:23:36.972Z,19.70
2019-01-20T08:26:06.228Z,18.48
2019-01-20T08:28:36.672Z,19.57
2019-01-20T08:31:05.778Z,18.17
2019-01-20T08:33:34.869Z,19.48
2019-01-20T08:36:04.328Z,20.27
2019-01-20T08:38:35.074Z,19.30
2019-01-20T08:41:04.521Z,19.55
2019-01-20T08:43:34.372Z,20.17
2019-01-20T08:46:23.668Z,19.10
2019-01-20T08:48:52.977Z,18.67
2019-01-20T08:51:23.337Z,20.65
2019-01-20T08:53:52.461Z,19.37
2019-01-20T08:56:21.642Z,20.12
2019-01-20T08:58:50.785Z,21.17
2019-01-20T09:01:20.013Z,18.90
2019-01-20T09:03:49.117Z,19.95
2019-01-20T09:06:18.219Z,20.52
2019-01-20T09:08:47.448Z,20.15
2019-01-20T09:11:16.640Z,19.67
2019-01-20T09:13:46.113Z,22.95
2019-01-20T09:16:15.651Z,20.05
2019-01-20T09:18:44.731Z,21.37
2019-01-20T09:21:13.840Z,20.92
2019-01-20T09:23:43.715Z,21.12
2019-01-20T09:26:12.896Z,21.07
2019-01-20T09:28:42.006Z,20.10
2019-01-20T09:31:11.178Z,22.40
2019-01-20T09:33:40.298Z,20.60
2019-01-20T09:36:09.534Z,19.80
2019-01-20T09:38:38.804Z,21.48
2019-01-20T09:41:07.896Z,20.65
2019-01-20T09:43:36.988Z,21.35
2019-01-20T09:46:06.160Z,21.45
2019-01-20T09:48:35.248Z,20.97
2019-01-20T09:51:04.532Z,21.45
2019-01-20T09:53:33.633Z,20.57
2019-01-20T09:56:02.848Z,21.70
2019-01-20T09:58:32.012Z,21.60
2019-01-20T10:01:01.128Z,20.92
2019-01-20T10:03:30.320Z,22.90
2019-01-20T10:05:59.479Z,23.83
2019-01-20T10:08:28.589Z,21.37
2019-01-20T10:10:57.750Z,21.37
2019-01-20T10:13:28.204Z,20.10
2019-01-20T10:15:57.319Z,19.67
2019-01-20T10:18:26.427Z,37.10
2019-01-20T10:20:55.520Z,43.70
2019-01-20T10:23:24.707Z,35.38
2019-01-20T10:25:53.964Z,26.60
2019-01-20T10:28:25.228Z,21.97
2019-01-20T10:30:54.424Z,21.10
2019-01-20T10:33:23.585Z,22.37
2019-01-20T10:36:41.798Z,22.22
2019-01-20T10:40:15.431Z,23.12
2019-01-20T10:43:02.687Z,21.95
2019-01-20T11:02:18.695Z,22.10
2019-01-20T11:05:04.415Z,23.42
2019-01-20T11:08:17.159Z,21.55
2019-01-20T11:11:11.528Z,21.80
2019-01-20T11:13:42.103Z,22.93
2019-01-20T11:16:11.277Z,22.93
2019-01-20T11:18:55.837Z,22.27
2019-01-20T11:21:25.170Z,22.22
2019-01-20T11:23:54.496Z,21.93
2019-01-20T11:26:23.860Z,21.57
2019-01-20T11:28:53.783Z,21.05
2019-01-20T11:31:23.246Z,21.42
2019-01-20T11:33:53.174Z,21.40
2019-01-20T11:36:24.112Z,22.40
2019-01-20T11:39:01.936Z,21.68
2019-01-20T11:41:32.399Z,20.77
2019-01-20T11:50:24.966Z,22.65
2019-01-20T11:55:36.707Z,20.30
2019-01-20T12:00:42.718Z,19.70
2019-01-20T12:03:12.085Z,21.23
2019-01-20T12:11:54.291Z,19.63
2019-01-20T12:14:26.005Z,18.67
2019-01-20T12:25:20.742Z,17.42
2019-01-20T12:45:51.594Z,17.95
2019-01-20T12:51:42.365Z,16.65
2019-01-20T13:01:06.730Z,17.35
2019-01-20T13:03:38.923Z,17.37
2019-01-20T13:06:08.394Z,16.75
2019-01-20T13:06:35.375Z,16.60
2019-01-20T13:08:37.617Z,14.15
2019-01-20T13:11:06.858Z,14.45
2019-01-20T13:13:36.070Z,15.08
2019-01-20T13:16:05.538Z,16.45
2019-01-20T13:18:40.806Z,17.10
2019-01-20T13:24:40.671Z,17.27
2019-01-20T13:27:41.148Z,19.52
2019-01-20T13:31:15.596Z,14.68
2019-01-20T13:34:47.210Z,16.45
2019-01-20T13:41:36.050Z,17.10
2019-01-20T13:44:15.982Z,16.30
2019-01-20T13:47:35.695Z,15.93
2019-01-20T13:51:01.766Z,14.90
2019-01-20T13:54:32.879Z,15.15
2019-01-20T13:57:00.269Z,13.25
2019-01-20T13:59:45.401Z,13.53
2019-01-20T14:06:16.372Z,10.48
2019-01-20T14:09:22.517Z,10.18
2019-01-20T14:12:02.679Z,10.78
2019-01-20T14:27:31.021Z,13.20
2019-01-20T14:30:18.644Z,11.97
2019-01-20T15:23:33.143Z,11.90
2019-01-20T16:03:14.198Z,13.40
2019-01-20T16:05:43.784Z,14.45
2019-01-20T16:08:24.252Z,13.88
2019-01-20T16:17:59.644Z,14.25
2019-01-20T16:20:32.825Z,15.48
2019-01-20T16:23:03.354Z,18.87
2019-01-20T16:25:36.924Z,13.80
2019-01-20T16:28:18.089Z,13.85
2019-01-20T16:31:45.228Z,14.13
2019-01-20T16:34:25.361Z,15.25
2019-01-20T16:51:13.393Z,13.98
2019-01-20T16:53:44.688Z,14.13
2019-01-20T16:57:17.577Z,18.23
2019-01-20T17:09:53.070Z,13.88
2019-01-20T17:12:24.752Z,13.48
2019-01-20T17:14:53.960Z,15.05
2019-01-20T17:17:23.295Z,16.37
2019-01-20T17:19:53.541Z,15.45
2019-01-20T17:22:26.013Z,15.05
2019-01-20T17:25:04.249Z,14.78
2019-01-20T17:27:33.843Z,15.08
2019-01-20T17:30:03.725Z,15.08
2019-01-20T17:32:34.327Z,17.15
2019-01-20T17:35:05.406Z,14.43
2019-01-20T17:37:34.728Z,15.80
2019-01-20T17:40:05.336Z,16.40
2019-01-20T17:42:39.123Z,16.02
2019-01-20T17:45:50.810Z,23.50
2019-01-20T17:49:40.292Z,16.25
2019-01-20T18:00:13.523Z,16.40
2019-01-20T18:02:48.652Z,15.80
2019-01-20T18:05:23.357Z,18.42
2019-01-20T18:07:56.570Z,15.90
2019-01-20T18:10:25.841Z,16.30
2019-01-20T18:12:55.175Z,17.00
2019-01-20T18:15:30.243Z,16.55
2019-01-20T18:18:02.670Z,16.17
2019-01-20T18:21:07.832Z,15.53
2019-01-20T18:23:37.010Z,15.18
2019-01-20T18:26:07.330Z,17.52
2019-01-20T18:36:35.259Z,17.05
2019-01-20T18:39:28.650Z,15.00
2019-01-20T18:42:14.516Z,15.98
2019-01-20T18:51:27.750Z,17.32
2019-01-20T18:57:47.390Z,18.48
2019-01-20T19:00:22.144Z,17.75
2019-01-20T19:02:51.446Z,16.85
2019-01-20T19:05:20.781Z,16.05
2019-01-20T19:07:49.959Z,16.67
2019-01-20T19:10:19.232Z,17.00
2019-01-20T19:12:48.571Z,16.23
2019-01-20T19:15:18.607Z,32.93
2019-01-20T19:17:47.800Z,21.37
2019-01-20T19:20:20.902Z,18.17
2019-01-20T19:22:51.706Z,18.40
2019-01-20T19:25:21.088Z,17.25
2019-01-20T19:27:50.256Z,18.40
2019-01-20T19:30:27.474Z,17.15
2019-01-20T19:32:56.649Z,19.73
2019-01-20T19:35:26.528Z,17.25
2019-01-20T19:37:56.801Z,19.35
2019-01-20T19:40:26.155Z,18.10
2019-01-20T19:42:57.001Z,17.67
2019-01-20T19:45:27.142Z,16.95
2019-01-20T19:48:05.208Z,20.77
2019-01-20T19:50:34.569Z,18.07
2019-01-20T19:53:03.856Z,19.75
2019-01-20T19:55:33.609Z,17.40
2019-01-20T19:58:04.227Z,16.97
2019-01-20T20:00:33.495Z,17.98
2019-01-20T20:03:02.869Z,17.60
2019-01-20T20:05:34.440Z,18.00
2019-01-20T20:08:03.965Z,16.50
2019-01-20T20:10:33.430Z,18.07
2019-01-20T20:13:02.585Z,18.32
2019-01-20T20:15:31.899Z,18.85
2019-01-20T20:18:01.068Z,36.77
2019-01-20T20:20:30.255Z,21.45
2019-01-20T20:23:00.973Z,17.75
2019-01-20T20:25:31.494Z,19.00
2019-01-20T20:28:00.678Z,17.70
2019-01-20T20:30:32.235Z,17.85
2019-01-20T20:33:01.569Z,18.62
2019-01-20T20:35:30.955Z,19.40
2019-01-20T20:38:00.163Z,18.85
2019-01-20T20:40:29.507Z,19.77
2019-01-20T20:42:58.672Z,19.45
2019-01-20T20:45:28.267Z,21.73
2019-01-20T20:47:57.552Z,22.90
2019-01-20T20:50:26.658Z,21.00
2019-01-20T20:52:56.050Z,21.60
2019-01-20T20:55:25.332Z,19.27
2019-01-20T20:57:54.456Z,19.82
2019-01-20T21:00:26.432Z,17.75
2019-01-20T21:02:55.624Z,20.85
2019-01-20T21:05:24.855Z,20.50
2019-01-20T21:07:54.065Z,20.48
2019-01-20T21:10:23.312Z,21.68
2019-01-20T21:12:52.502Z,22.70
2019-01-20T21:15:21.704Z,19.92
2019-01-20T21:17:50.808Z,20.43
2019-01-20T21:20:20.977Z,20.80
2019-01-20T21:22:50.251Z,19.37
2019-01-20T21:25:19.525Z,21.02
2019-01-20T21:27:48.809Z,23.15
2019-01-20T21:30:20.169Z,22.48
2019-01-20T21:32:49.431Z,19.37
2019-01-20T21:35:19.293Z,22.55
2019-01-20T21:37:49.817Z,22.15
2019-01-20T21:40:19.440Z,19.95
2019-01-20T21:42:48.818Z,21.02
2019-01-20T21:45:18.156Z,21.37
2019-01-20T21:47:47.318Z,21.40
2019-01-20T21:50:21.979Z,20.20
2019-01-20T21:52:51.434Z,20.70
2019-01-20T21:55:20.756Z,20.50
2019-01-20T21:57:50.420Z,21.97
2019-01-20T22:00:21.707Z,20.30
2019-01-20T22:02:51.048Z,21.82
2019-01-20T22:05:20.323Z,22.35
2019-01-20T22:07:49.437Z,22.32
2019-01-20T22:10:20.039Z,19.48
2019-01-20T22:12:49.292Z,21.23
2019-01-20T22:15:19.921Z,21.23
2019-01-20T22:17:49.664Z,21.93
2019-01-20T22:20:20.383Z,21.97
2019-01-20T22:22:51.240Z,24.32
2019-01-20T22:25:20.345Z,24.37
2019-01-20T22:27:49.411Z,24.75
2019-01-20T22:30:36.401Z,25.08
2019-01-20T22:33:07.093Z,26.12
2019-01-20T22:35:36.187Z,28.50
2019-01-20T22:38:05.288Z,27.67
2019-01-20T22:40:34.463Z,25.08
2019-01-20T22:43:03.556Z,25.90
2019-01-20T22:45:32.708Z,26.87
2019-01-20T22:48:01.808Z,25.57
2019-01-20T22:50:31.025Z,27.42
2019-01-20T22:53:00.268Z,25.35
2019-01-20T22:55:29.437Z,25.12
2019-01-20T22:57:58.551Z,24.75
2019-01-20T23:00:50.885Z,23.47
2019-01-20T23:03:20.171Z,24.55
2019-01-20T23:05:51.468Z,28.32
2019-01-20T23:08:20.662Z,25.48
2019-01-20T23:10:49.852Z,24.85
2019-01-20T23:13:19.018Z,26.82
2019-01-20T23:15:48.265Z,25.72
2019-01-20T23:18:17.505Z,26.95
2019-01-20T23:20:46.715Z,25.45
2019-01-20T23:23:15.800Z,28.47
2019-01-20T23:25:44.909Z,26.20
2019-01-20T23:28:14.007Z,24.47
2019-01-20T23:30:43.165Z,26.95
2019-01-20T23:33:12.348Z,25.72
2019-01-20T23:35:41.436Z,26.25
2019-01-20T23:38:10.645Z,25.40
2019-01-20T23:40:39.947Z,24.92
2019-01-20T23:43:09.044Z,23.83
2019-01-20T23:45:38.213Z,25.23
2019-01-20T23:48:07.379Z,24.50
2019-01-20T23:50:36.473Z,25.15
2019-01-20T23:53:05.721Z,25.80
2019-01-20T23:55:35.402Z,24.15
2019-01-20T23:58:05.512Z,25.90
